createdAt,value
2022-12-25T00:01:52.283Z,7.85
2022-12-25T00:04:19.904Z,7.78
2022-12-25T00:06:47.346Z,7.68
2022-12-25T00:09:14.857Z,7.85
2022-12-25T00:11:42.755Z,7.07
2022-12-25T00:14:10.215Z,7.20
2022-12-25T00:16:37.794Z,8.15
2022-12-25T00:19:05.319Z,6.50
2022-12-25T00:21:33.345Z,6.82
2022-12-25T00:24:01.668Z,7.20
2022-12-25T00:26:31.605Z,7.00
2022-12-25T00:28:59.646Z,7.13
2022-12-25T00:31:27.768Z,7.45
2022-12-25T00:33:55.298Z,6.88
2022-12-25T00:36:28.305Z,6.97
2022-12-25T00:38:55.802Z,6.97
2022-12-25T00:41:43.295Z,6.93
2022-12-25T00:44:13.906Z,7.03
2022-12-25T00:46:42.267Z,6.77
2022-12-25T00:49:11.812Z,6.85
2022-12-25T00:51:39.798Z,7.30
2022-12-25T00:54:07.849Z,7.18
2022-12-25T00:56:36.042Z,5.95
2022-12-25T00:59:04.225Z,6.63
2022-12-25T01:01:32.317Z,7.43
2022-12-25T01:04:00.519Z,7.05
2022-12-25T01:06:28.692Z,6.82
2022-12-25T01:09:15.966Z,6.10
2022-12-25T01:11:43.973Z,6.85
2022-12-25T01:14:11.988Z,6.80
2022-12-25T01:16:45.340Z,6.72
2022-12-25T01:19:12.900Z,7.45
2022-12-25T01:21:40.429Z,7.10
2022-12-25T01:24:08.347Z,7.75
2022-12-25T01:26:35.784Z,7.18
2022-12-25T01:29:03.395Z,6.63
2022-12-25T01:31:30.873Z,7.60
2022-12-25T01:33:58.481Z,7.07
2022-12-25T01:36:27.070Z,7.78
2022-12-25T01:38:54.955Z,7.57
2022-12-25T01:41:24.953Z,7.90
2022-12-25T01:44:08.283Z,7.82
2022-12-25T01:46:36.385Z,6.75
2022-12-25T01:49:13.642Z,7.80
2022-12-25T01:51:59.434Z,7.57
2022-12-25T01:54:34.067Z,7.03
2022-12-25T01:57:09.759Z,7.32
2022-12-25T01:59:37.544Z,7.28
2022-12-25T02:02:05.295Z,6.68
2022-12-25T02:04:42.008Z,6.75
2022-12-25T02:07:26.766Z,7.43
2022-12-25T02:09:54.553Z,6.82
2022-12-25T02:12:26.661Z,6.95
2022-12-25T02:15:04.913Z,6.88
2022-12-25T02:17:48.627Z,6.95
2022-12-25T02:21:18.012Z,7.07
2022-12-25T02:23:58.491Z,7.13
2022-12-25T02:27:18.119Z,7.28
2022-12-25T02:30:02.279Z,6.57
2022-12-25T02:32:46.846Z,7.47
2022-12-25T02:35:33.300Z,7.22
2022-12-25T02:38:09.764Z,7.30
2022-12-25T02:40:50.159Z,7.30
2022-12-25T02:43:49.820Z,6.47
2022-12-25T02:46:41.561Z,6.75
2022-12-25T02:49:35.136Z,6.78
2022-12-25T02:52:31.119Z,6.90
2022-12-25T02:55:32.781Z,7.22
2022-12-25T02:58:25.873Z,6.88
2022-12-25T03:01:23.217Z,6.60
2022-12-25T03:04:17.617Z,6.72
2022-12-25T03:07:12.216Z,6.25
2022-12-25T03:10:10.831Z,7.40
2022-12-25T03:12:51.701Z,6.90
2022-12-25T03:15:39.750Z,6.47
2022-12-25T03:18:15.266Z,6.88
2022-12-25T03:21:01.536Z,6.47
2022-12-25T03:23:53.463Z,6.20
2022-12-25T03:29:07.079Z,5.25
2022-12-25T03:32:01.752Z,5.57
2022-12-25T03:35:19.729Z,5.57
2022-12-25T03:38:40.543Z,5.38
2022-12-25T03:41:52.257Z,6.00
2022-12-25T03:45:08.429Z,6.15
2022-12-25T03:48:00.849Z,5.57
2022-12-25T03:50:57.647Z,6.50
2022-12-25T03:53:50.249Z,5.82
2022-12-25T03:56:38.306Z,6.50
2022-12-25T03:59:24.479Z,6.28
2022-12-25T04:02:11.245Z,6.65
2022-12-25T04:04:57.916Z,6.03
2022-12-25T04:07:43.827Z,6.57
2022-12-25T04:10:30.144Z,6.72
2022-12-25T04:13:16.124Z,6.10
2022-12-25T04:16:02.204Z,6.57
2022-12-25T04:18:48.450Z,6.45
2022-12-25T04:21:34.482Z,6.40
2022-12-25T04:24:20.528Z,6.20
2022-12-25T04:27:06.584Z,6.72
2022-12-25T04:30:03.181Z,5.93
2022-12-25T04:32:49.645Z,6.55
2022-12-25T04:35:35.706Z,6.10
2022-12-25T04:38:03.185Z,5.90
2022-12-25T04:40:30.641Z,5.97
2022-12-25T04:42:58.065Z,5.72
2022-12-25T04:45:25.579Z,6.57
2022-12-25T04:47:52.996Z,6.20
2022-12-25T04:50:20.565Z,6.50
2022-12-25T04:52:47.970Z,6.30
2022-12-25T04:55:15.421Z,6.30
2022-12-25T04:57:42.851Z,6.68
2022-12-25T05:00:10.962Z,5.88
2022-12-25T05:02:38.616Z,6.28
2022-12-25T05:05:06.512Z,6.85
2022-12-25T05:07:33.936Z,6.63
2022-12-25T05:10:01.364Z,6.88
2022-12-25T05:12:28.769Z,6.32
2022-12-25T05:14:56.200Z,6.18
2022-12-25T05:17:23.778Z,5.93
2022-12-25T05:19:51.188Z,6.15
2022-12-25T05:22:18.619Z,6.57
2022-12-25T05:24:46.129Z,6.32
2022-12-25T05:27:15.589Z,6.00
2022-12-25T05:29:43.173Z,6.07
2022-12-25T05:32:10.661Z,5.43
2022-12-25T05:34:38.113Z,5.70
2022-12-25T05:37:05.559Z,6.15
2022-12-25T05:39:32.970Z,6.07
2022-12-25T05:42:00.424Z,6.60
2022-12-25T05:44:27.850Z,6.38
2022-12-25T05:46:55.339Z,6.32
2022-12-25T05:49:22.958Z,6.50
2022-12-25T05:51:50.386Z,6.32
2022-12-25T05:54:17.911Z,6.53
2022-12-25T05:56:45.331Z,6.28
2022-12-25T05:59:12.793Z,6.72
2022-12-25T06:01:40.340Z,5.75
2022-12-25T06:04:12.428Z,7.43
2022-12-25T06:06:41.399Z,6.55
2022-12-25T06:09:12.001Z,7.13
2022-12-25T06:11:40.476Z,6.80
2022-12-25T06:14:13.306Z,7.43
2022-12-25T06:16:41.355Z,6.72
2022-12-25T06:19:08.891Z,7.30
2022-12-25T06:21:36.927Z,6.95
2022-12-25T06:24:04.868Z,6.53
2022-12-25T06:26:32.418Z,7.28
2022-12-25T06:28:59.859Z,7.25
2022-12-25T06:31:27.421Z,6.95
2022-12-25T06:33:55.712Z,7.93
2022-12-25T06:36:27.483Z,7.35
2022-12-25T06:38:55.928Z,7.85
2022-12-25T06:41:26.665Z,6.95
2022-12-25T06:43:57.398Z,7.93
2022-12-25T06:46:27.947Z,6.72
2022-12-25T06:48:57.638Z,8.10
2022-12-25T06:51:29.425Z,7.72
2022-12-25T06:53:58.310Z,8.05
2022-12-25T06:56:28.053Z,7.50
2022-12-25T06:59:02.916Z,8.85
2022-12-25T07:01:50.335Z,8.32
2022-12-25T07:04:23.666Z,7.88
2022-12-25T07:06:51.131Z,7.53
2022-12-25T07:09:18.721Z,7.57
2022-12-25T07:11:46.148Z,7.57
2022-12-25T07:14:24.400Z,8.57
2022-12-25T07:16:52.386Z,7.07
2022-12-25T07:19:20.035Z,7.53
2022-12-25T07:21:47.487Z,7.70
2022-12-25T07:24:20.537Z,7.30
2022-12-25T07:26:49.543Z,7.40
2022-12-25T07:29:18.291Z,7.47
2022-12-25T07:31:47.027Z,7.68
2022-12-25T07:34:17.271Z,7.18
2022-12-25T07:36:44.969Z,6.97
2022-12-25T07:39:13.260Z,6.93
2022-12-25T07:41:40.740Z,6.85
2022-12-25T07:44:16.058Z,6.28
2022-12-25T07:46:43.774Z,6.53
2022-12-25T07:49:12.091Z,6.55
2022-12-25T07:51:39.807Z,6.18
2022-12-25T07:54:07.440Z,5.90
2022-12-25T07:56:35.115Z,5.47
2022-12-25T07:59:02.595Z,5.95
2022-12-25T08:01:30.532Z,5.43
2022-12-25T08:04:01.426Z,5.10
2022-12-25T08:06:33.001Z,5.57
2022-12-25T08:09:08.698Z,5.35
2022-12-25T08:11:37.345Z,4.82
2022-12-25T08:14:10.395Z,5.00
2022-12-25T08:16:41.633Z,4.85
2022-12-25T08:19:10.309Z,5.05
2022-12-25T08:21:38.379Z,4.90
2022-12-25T08:24:06.253Z,4.93
2022-12-25T08:26:33.820Z,5.68
2022-12-25T08:29:01.279Z,5.03
2022-12-25T08:31:30.476Z,5.10
2022-12-25T08:34:02.296Z,5.00
2022-12-25T08:39:02.521Z,4.95
2022-12-25T08:41:32.255Z,5.10
2022-12-25T08:43:59.724Z,4.82
2022-12-25T08:46:27.257Z,4.72
2022-12-25T08:48:56.698Z,4.57
2022-12-25T08:51:26.334Z,5.22
2022-12-25T08:53:59.722Z,4.50
2022-12-25T08:56:28.680Z,4.75
2022-12-25T08:58:56.176Z,4.75
2022-12-25T09:01:23.727Z,5.05
2022-12-25T09:03:51.399Z,5.22
2022-12-25T09:06:18.948Z,5.32
2022-12-25T09:08:49.587Z,5.15
2022-12-25T09:11:19.661Z,5.28
2022-12-25T09:13:48.725Z,6.10
2022-12-25T09:16:21.293Z,5.70
2022-12-25T09:18:49.685Z,5.47
2022-12-25T09:21:18.937Z,4.80
2022-12-25T09:23:46.494Z,5.38
2022-12-25T09:26:17.452Z,4.53
2022-12-25T09:28:51.341Z,4.97
2022-12-25T09:31:22.884Z,4.45
2022-12-25T09:33:51.723Z,5.25
2022-12-25T09:36:23.184Z,4.50
2022-12-25T09:38:51.425Z,3.92
2022-12-25T09:41:32.570Z,4.15
2022-12-25T09:44:13.883Z,4.30
2022-12-25T09:47:13.737Z,4.30
2022-12-25T09:49:53.675Z,7.22
2022-12-25T09:52:34.538Z,6.68
2022-12-25T09:55:24.718Z,5.97
2022-12-25T09:57:56.727Z,4.68
2022-12-25T10:00:33.873Z,4.60
2022-12-25T10:03:24.303Z,5.15
2022-12-25T10:06:22.390Z,7.45
2022-12-25T10:09:15.206Z,5.45
2022-12-25T10:11:58.748Z,6.90
2022-12-25T10:15:18.722Z,7.80
2022-12-25T10:18:25.735Z,15.10
2022-12-25T10:20:57.326Z,12.15
2022-12-25T10:23:40.729Z,11.00
2022-12-25T10:26:21.876Z,6.32
2022-12-25T10:29:09.590Z,6.88
2022-12-25T10:31:37.521Z,5.88
2022-12-25T10:34:06.831Z,11.75
2022-12-25T10:36:34.378Z,6.15
2022-12-25T10:39:01.979Z,7.40
2022-12-25T10:41:44.859Z,7.40
2022-12-25T10:44:20.360Z,7.10
2022-12-25T10:46:51.194Z,7.50
2022-12-25T10:49:23.755Z,8.00
2022-12-25T10:51:52.086Z,6.53
2022-12-25T10:54:35.056Z,5.95
2022-12-25T10:57:09.719Z,5.57
2022-12-25T10:59:56.521Z,5.25
2022-12-25T11:02:26.526Z,5.03
2022-12-25T11:05:28.595Z,4.47
2022-12-25T11:07:59.515Z,4.55
2022-12-25T11:10:38.002Z,4.73
2022-12-25T11:13:16.061Z,5.75
2022-12-25T11:16:02.857Z,7.90
2022-12-25T11:18:44.672Z,7.63
2022-12-25T11:24:22.281Z,4.70
2022-12-25T11:27:00.241Z,4.88
2022-12-25T11:29:45.007Z,5.25
2022-12-25T11:32:30.940Z,4.90
2022-12-25T11:35:02.513Z,5.90
2022-12-25T11:37:38.212Z,5.50
2022-12-25T11:40:13.773Z,7.25
2022-12-25T11:43:07.615Z,5.45
2022-12-25T11:45:46.727Z,5.07
2022-12-25T11:48:27.988Z,4.82
2022-12-25T11:51:01.266Z,5.38
2022-12-25T11:53:39.733Z,4.45
2022-12-25T11:56:18.639Z,5.15
2022-12-25T11:58:54.618Z,5.18
2022-12-25T12:01:42.466Z,5.47
2022-12-25T12:04:36.888Z,5.38
2022-12-25T12:07:25.819Z,5.32
2022-12-25T12:10:28.336Z,5.47
2022-12-25T12:13:30.042Z,5.00
2022-12-25T12:15:58.542Z,5.18
2022-12-25T12:18:25.915Z,5.72
2022-12-25T12:21:02.628Z,6.75
2022-12-25T12:23:36.725Z,5.70
2022-12-25T12:26:04.893Z,6.50
2022-12-25T12:28:45.857Z,5.65
2022-12-25T12:31:14.217Z,6.23
2022-12-25T12:33:52.004Z,6.55
2022-12-25T12:36:34.411Z,7.15
2022-12-25T12:39:05.059Z,8.32
2022-12-25T12:41:59.241Z,8.93
2022-12-25T12:44:34.681Z,8.50
2022-12-25T12:47:02.677Z,7.60
2022-12-25T12:49:33.654Z,7.68
2022-12-25T12:52:32.802Z,7.85
2022-12-25T12:55:08.796Z,8.13
2022-12-25T12:57:39.835Z,7.68
2022-12-25T13:00:21.252Z,8.70
2022-12-25T13:03:12.654Z,8.55
2022-12-25T13:05:50.131Z,8.80
2022-12-25T13:08:37.583Z,8.55
2022-12-25T13:11:35.215Z,8.40
2022-12-25T13:14:03.711Z,8.50
2022-12-25T13:16:38.899Z,8.20
2022-12-25T13:19:14.547Z,8.98
2022-12-25T13:21:57.079Z,8.50
2022-12-25T13:24:32.272Z,8.25
2022-12-25T13:27:00.667Z,9.18
2022-12-25T13:29:38.183Z,8.73
2022-12-25T13:32:25.247Z,9.70
2022-12-25T13:34:53.934Z,8.30
2022-12-25T13:37:25.771Z,8.80
2022-12-25T13:39:56.789Z,8.80
2022-12-25T13:42:30.110Z,8.00
2022-12-25T13:45:02.289Z,9.15
2022-12-25T13:47:38.484Z,8.70
2022-12-25T13:50:27.946Z,8.85
2022-12-25T13:52:58.247Z,8.63
2022-12-25T13:55:30.537Z,8.35
2022-12-25T13:58:03.468Z,8.95
2022-12-25T14:00:56.706Z,8.93
2022-12-25T14:03:35.540Z,9.30
2022-12-25T14:06:16.128Z,10.35
2022-12-25T14:08:45.219Z,10.95
2022-12-25T14:11:17.644Z,10.90
2022-12-25T14:13:48.840Z,11.15
2022-12-25T14:16:20.717Z,11.60
2022-12-25T14:18:59.814Z,10.75
2022-12-25T14:21:38.563Z,10.73
2022-12-25T14:24:15.078Z,11.00
2022-12-25T14:26:43.487Z,10.68
2022-12-25T14:29:25.020Z,11.50
2022-12-25T14:32:00.531Z,10.55
2022-12-25T14:34:30.528Z,11.38
2022-12-25T14:36:58.170Z,10.95
2022-12-25T14:39:37.304Z,11.43
2022-12-25T14:42:32.502Z,11.48
2022-12-25T14:45:25.091Z,10.60
2022-12-25T14:48:24.545Z,11.93
2022-12-25T14:51:08.030Z,11.15
2022-12-25T14:53:49.018Z,11.55
2022-12-25T14:56:22.537Z,12.03
2022-12-25T14:58:54.994Z,12.45
2022-12-25T15:01:35.514Z,12.05
2022-12-25T15:04:17.955Z,11.63
2022-12-25T15:07:07.096Z,11.80
2022-12-25T15:09:36.163Z,12.02
2022-12-25T15:12:03.991Z,12.15
2022-12-25T15:14:31.516Z,14.65
2022-12-25T15:17:01.663Z,14.98
2022-12-25T15:19:38.688Z,14.48
2022-12-25T15:22:06.990Z,13.35
2022-12-25T15:24:34.453Z,15.07
2022-12-25T15:27:01.997Z,14.98
2022-12-25T15:30:07.692Z,15.93
2022-12-25T15:32:21.445Z,15.05
2022-12-25T15:34:50.051Z,14.52
2022-12-25T15:37:18.925Z,14.05
2022-12-25T15:39:46.746Z,14.13
2022-12-25T15:42:18.398Z,13.85
2022-12-25T15:47:15.958Z,14.45
2022-12-25T15:49:43.783Z,13.85
2022-12-25T15:52:15.818Z,13.68
2022-12-25T15:54:43.640Z,14.75
2022-12-25T15:57:21.049Z,14.85
2022-12-25T15:59:48.970Z,14.40
2022-12-25T16:02:19.900Z,13.90
2022-12-25T16:04:47.857Z,13.63
2022-12-25T16:07:23.759Z,14.25
2022-12-25T16:09:51.960Z,21.10
2022-12-25T16:12:19.856Z,15.98
2022-12-25T16:14:47.362Z,16.02
2022-12-25T16:17:16.051Z,16.55
2022-12-25T16:19:44.908Z,16.13
2022-12-25T16:22:19.776Z,14.77
2022-12-25T16:24:48.571Z,14.70
2022-12-25T16:27:16.082Z,16.70
2022-12-25T16:29:43.716Z,14.43
2022-12-25T16:32:12.767Z,19.88
2022-12-25T16:34:41.170Z,21.92
2022-12-25T16:37:08.681Z,22.65
2022-12-25T16:39:36.199Z,19.42
2022-12-25T16:42:03.758Z,18.67
2022-12-25T16:44:31.286Z,18.17
2022-12-25T16:46:58.795Z,16.80
2022-12-25T16:49:26.311Z,15.23
2022-12-25T16:51:53.894Z,18.10
2022-12-25T16:54:21.392Z,17.20
2022-12-25T16:56:51.483Z,16.30
2022-12-25T16:59:19.091Z,20.05
2022-12-25T17:01:46.697Z,18.00
2022-12-25T17:04:14.292Z,18.80
2022-12-25T17:06:41.848Z,18.23
2022-12-25T17:09:10.567Z,17.52
2022-12-25T17:11:38.000Z,22.60
2022-12-25T17:14:06.215Z,21.85
2022-12-25T17:16:36.616Z,20.63
2022-12-25T17:19:12.939Z,19.52
2022-12-25T17:21:40.410Z,21.88
2022-12-25T17:24:09.055Z,20.50
2022-12-25T17:26:37.002Z,21.42
2022-12-25T17:29:04.487Z,21.90
2022-12-25T17:31:32.018Z,20.05
2022-12-25T17:34:02.144Z,21.75
2022-12-25T17:36:31.195Z,21.05
2022-12-25T17:39:00.850Z,20.58
2022-12-25T17:41:29.319Z,19.25
2022-12-25T17:43:56.821Z,19.23
2022-12-25T17:46:29.778Z,19.95
2022-12-25T17:49:00.836Z,19.15
2022-12-25T17:51:30.680Z,22.65
2022-12-25T17:54:04.540Z,21.55
2022-12-25T17:56:32.722Z,21.23
2022-12-25T17:59:06.830Z,23.80
2022-12-25T18:01:38.568Z,21.67
2022-12-25T18:04:06.950Z,20.33
2022-12-25T18:06:36.879Z,42.55
2022-12-25T18:09:06.257Z,39.55
2022-12-25T18:11:34.176Z,36.63
2022-12-25T18:14:06.869Z,36.17
2022-12-25T18:16:38.333Z,31.05
2022-12-25T18:19:06.487Z,28.45
2022-12-25T18:21:34.373Z,30.52
2022-12-25T18:24:04.481Z,23.67
2022-12-25T18:26:32.469Z,21.33
2022-12-25T18:29:00.173Z,22.25
2022-12-25T18:31:32.296Z,22.85
2022-12-25T18:34:00.648Z,24.50
2022-12-25T18:36:29.857Z,22.73
2022-12-25T18:38:58.800Z,24.70
2022-12-25T18:41:28.403Z,19.60
2022-12-25T18:43:56.370Z,21.17
2022-12-25T18:46:26.690Z,18.63
2022-12-25T18:48:56.695Z,19.27
2022-12-25T18:51:24.835Z,18.88
2022-12-25T18:53:52.301Z,18.55
2022-12-25T18:56:20.524Z,17.60
2022-12-25T18:58:48.181Z,17.35
2022-12-25T19:01:22.554Z,15.95
2022-12-25T19:03:53.910Z,16.63
2022-12-25T19:06:28.200Z,15.38
2022-12-25T19:08:56.332Z,16.23
2022-12-25T19:11:23.785Z,15.32
2022-12-25T19:13:51.203Z,15.30
2022-12-25T19:16:18.805Z,15.40
2022-12-25T19:18:46.286Z,15.57
2022-12-25T19:21:13.788Z,15.70
2022-12-25T19:23:41.286Z,16.10
2022-12-25T19:26:11.108Z,16.10
2022-12-25T19:28:39.664Z,16.17
2022-12-25T19:31:09.389Z,17.17
2022-12-25T19:33:41.734Z,17.65
2022-12-25T19:36:13.273Z,20.15
2022-12-25T19:38:41.240Z,19.00
2022-12-25T19:41:16.043Z,20.60
2022-12-25T19:43:47.602Z,22.75
2022-12-25T19:46:23.884Z,21.60
2022-12-25T19:48:59.643Z,20.90
2022-12-25T19:51:29.446Z,20.15
2022-12-25T19:53:57.014Z,21.35
2022-12-25T19:56:26.605Z,21.52
2022-12-25T19:58:54.944Z,21.63
2022-12-25T20:01:26.923Z,23.45
2022-12-25T20:03:54.891Z,20.67
2022-12-25T20:06:28.840Z,21.38
2022-12-25T20:09:05.102Z,21.90
2022-12-25T20:11:35.061Z,22.10
2022-12-25T20:14:03.379Z,22.50
2022-12-25T20:16:31.167Z,26.58
2022-12-25T20:19:02.294Z,25.45
2022-12-25T20:21:30.589Z,25.42
2022-12-25T20:23:58.640Z,24.98
2022-12-25T20:26:31.871Z,27.60
2022-12-25T20:28:59.696Z,27.70
2022-12-25T20:31:32.154Z,27.85
2022-12-25T20:34:05.889Z,27.95
2022-12-25T20:36:37.323Z,27.13
2022-12-25T20:39:11.704Z,24.38
2022-12-25T20:41:40.496Z,25.05
2022-12-25T20:44:10.013Z,24.10
2022-12-25T20:46:38.045Z,24.85
2022-12-25T20:49:06.035Z,24.40
2022-12-25T20:51:33.846Z,25.65
2022-12-25T20:54:09.604Z,24.90
2022-12-25T20:56:37.484Z,23.65
2022-12-25T20:59:04.916Z,23.42
2022-12-25T21:01:32.532Z,23.75
2022-12-25T21:04:00.199Z,22.20
2022-12-25T21:06:27.813Z,22.27
2022-12-25T21:08:55.301Z,22.35
2022-12-25T21:11:23.129Z,21.83
2022-12-25T21:13:50.668Z,20.02
2022-12-25T21:16:22.049Z,21.05
2022-12-25T21:18:53.273Z,19.83
2022-12-25T21:21:21.928Z,21.50
2022-12-25T21:23:49.522Z,20.00
2022-12-25T21:26:21.937Z,20.95
2022-12-25T21:28:53.275Z,21.90
2022-12-25T21:31:21.777Z,22.02
2022-12-25T21:33:53.914Z,21.88
2022-12-25T21:36:31.240Z,21.27
2022-12-25T21:39:07.364Z,18.65
2022-12-25T21:41:38.655Z,18.88
2022-12-25T21:44:07.484Z,19.05
2022-12-25T21:46:35.094Z,18.23
2022-12-25T21:49:03.943Z,19.00
2022-12-25T21:51:53.000Z,18.88
2022-12-25T21:54:23.058Z,18.98
2022-12-25T21:56:50.642Z,18.55
2022-12-25T21:59:22.043Z,19.08
2022-12-25T22:01:52.337Z,18.05
2022-12-25T22:04:22.629Z,17.52
2022-12-25T22:07:08.804Z,18.60
2022-12-25T22:09:37.115Z,18.30
2022-12-25T22:12:26.206Z,18.65
2022-12-25T22:15:03.776Z,19.70
2022-12-25T22:18:00.722Z,18.85
2022-12-25T22:20:37.554Z,18.45
2022-12-25T22:23:05.893Z,17.63
2022-12-25T22:25:33.577Z,19.17
2022-12-25T22:28:01.164Z,20.15
2022-12-25T22:30:29.681Z,18.45
2022-12-25T22:32:59.299Z,19.98
2022-12-25T22:35:26.867Z,20.63
2022-12-25T22:37:54.865Z,20.80
2022-12-25T22:40:22.495Z,19.40
2022-12-25T22:42:53.955Z,19.58
2022-12-25T22:45:21.593Z,19.65
2022-12-25T22:47:49.441Z,20.02
2022-12-25T22:50:17.052Z,19.23
2022-12-25T22:52:45.792Z,19.20
2022-12-25T22:55:18.381Z,20.83
2022-12-25T22:57:46.036Z,20.25
2022-12-25T23:00:13.971Z,19.45
2022-12-25T23:02:41.567Z,19.73
2022-12-25T23:05:09.427Z,21.17
2022-12-25T23:07:36.981Z,19.90
2022-12-25T23:10:06.603Z,20.25
2022-12-25T23:12:53.195Z,19.85
2022-12-25T23:15:20.865Z,19.25
2022-12-25T23:18:06.808Z,19.77
2022-12-25T23:20:54.976Z,20.55
2022-12-25T23:23:42.014Z,20.17
2022-12-25T23:26:10.933Z,21.20
2022-12-25T23:29:00.928Z,22.13
2022-12-25T23:31:34.007Z,21.05
2022-12-25T23:34:02.285Z,21.73
2022-12-25T23:36:29.736Z,22.15
2022-12-25T23:39:01.584Z,21.00
2022-12-25T23:41:32.736Z,20.63
2022-12-25T23:44:00.217Z,21.60
2022-12-25T23:46:27.698Z,18.83
2022-12-25T23:48:55.245Z,20.17
2022-12-25T23:51:22.719Z,21.52
2022-12-25T23:53:50.188Z,21.35
2022-12-25T23:56:17.687Z,21.17
2022-12-25T23:58:51.357Z,21.40
